sensor_id;sensor_type;location;lat;lon;timestamp;temperature;humidity
75190;HTU21D;69198;44.694;37.790;2023-07-28T00:00:44;25.54;80.86
75190;HTU21D;69198;44.694;37.790;2023-07-28T00:01:45;25.57;80.68
75190;HTU21D;69198;44.694;37.790;2023-07-28T00:02:46;25.59;80.62
75190;HTU21D;69198;44.694;37.790;2023-07-28T00:03:47;25.63;80.55
75190;HTU21D;69198;44.694;37.790;2023-07-28T00:04:48;25.65;80.43
75190;HTU21D;69198;44.694;37.790;2023-07-28T00:05:49;25.67;80.31
75190;HTU21D;69198;44.694;37.790;2023-07-28T00:06:50;25.68;80.18
75190;HTU21D;69198;44.694;37.790;2023-07-28T00:07:51;25.68;80.06
75190;HTU21D;69198;44.694;37.790;2023-07-28T00:08:53;25.71;79.94
75190;HTU21D;69198;44.694;37.790;2023-07-28T00:09:54;25.71;79.85
75190;HTU21D;69198;44.694;37.790;2023-07-28T00:10:55;25.71;79.76
75190;HTU21D;69198;44.694;37.790;2023-07-28T00:11:57;25.71;79.70
75190;HTU21D;69198;44.694;37.790;2023-07-28T00:12:59;25.71;79.58
75190;HTU21D;69198;44.694;37.790;2023-07-28T00:14:00;25.71;79.47
75190;HTU21D;69198;44.694;37.790;2023-07-28T00:15:01;25.69;79.37
75190;HTU21D;69198;44.694;37.790;2023-07-28T00:16:05;25.66;79.43
75190;HTU21D;69198;44.694;37.790;2023-07-28T00:17:06;25.61;79.59
75190;HTU21D;69198;44.694;37.790;2023-07-28T00:18:07;25.58;79.71
75190;HTU21D;69198;44.694;37.790;2023-07-28T00:19:08;25.54;79.87
75190;HTU21D;69198;44.694;37.790;2023-07-28T00:20:10;25.53;80.01
75190;HTU21D;69198;44.694;37.790;2023-07-28T00:21:11;25.53;80.01
75190;HTU21D;69198;44.694;37.790;2023-07-28T00:22:12;25.42;80.52
75190;HTU21D;69198;44.694;37.790;2023-07-28T00:23:13;25.33;81.15
75190;HTU21D;69198;44.694;37.790;2023-07-28T00:24:15;25.29;81.51
75190;HTU21D;69198;44.694;37.790;2023-07-28T00:25:17;25.30;81.58
75190;HTU21D;69198;44.694;37.790;2023-07-28T00:26:18;25.33;81.64
75190;HTU21D;69198;44.694;37.790;2023-07-28T00:27:19;25.31;81.74
75190;HTU21D;69198;44.694;37.790;2023-07-28T00:28:20;25.27;81.90
75190;HTU21D;69198;44.694;37.790;2023-07-28T00:29:21;25.22;82.01
75190;HTU21D;69198;44.694;37.790;2023-07-28T00:30:22;25.18;82.10
75190;HTU21D;69198;44.694;37.790;2023-07-28T00:31:24;25.16;82.17
75190;HTU21D;69198;44.694;37.790;2023-07-28T00:32:25;25.15;82.33
75190;HTU21D;69198;44.694;37.790;2023-07-28T00:33:26;25.12;82.65
75190;HTU21D;69198;44.694;37.790;2023-07-28T00:34:27;25.07;83.23
75190;HTU21D;69198;44.694;37.790;2023-07-28T00:35:28;25.04;83.56
75190;HTU21D;69198;44.694;37.790;2023-07-28T00:36:30;25.03;83.65
75190;HTU21D;69198;44.694;37.790;2023-07-28T00:37:31;25.02;83.74
75190;HTU21D;69198;44.694;37.790;2023-07-28T00:38:32;25.00;83.81
75190;HTU21D;69198;44.694;37.790;2023-07-28T00:39:33;24.99;83.79
75190;HTU21D;69198;44.694;37.790;2023-07-28T00:40:35;24.97;83.79
75190;HTU21D;69198;44.694;37.790;2023-07-28T00:41:36;24.94;83.84
75190;HTU21D;69198;44.694;37.790;2023-07-28T00:42:37;24.94;83.87
75190;HTU21D;69198;44.694;37.790;2023-07-28T00:43:38;24.93;83.90
75190;HTU21D;69198;44.694;37.790;2023-07-28T00:44:39;24.92;83.96
75190;HTU21D;69198;44.694;37.790;2023-07-28T00:45:41;24.92;84.01
75190;HTU21D;69198;44.694;37.790;2023-07-28T00:46:42;24.90;84.07
75190;HTU21D;69198;44.694;37.790;2023-07-28T00:47:45;24.90;84.11
75190;HTU21D;69198;44.694;37.790;2023-07-28T00:48:46;24.90;84.19
75190;HTU21D;69198;44.694;37.790;2023-07-28T00:49:47;24.90;84.21
75190;HTU21D;69198;44.694;37.790;2023-07-28T00:50:49;24.90;84.24
75190;HTU21D;69198;44.694;37.790;2023-07-28T00:51:50;24.90;84.25
75190;HTU21D;69198;44.694;37.790;2023-07-28T00:52:52;24.90;84.26
75190;HTU21D;69198;44.694;37.790;2023-07-28T00:53:53;24.88;84.27
75190;HTU21D;69198;44.694;37.790;2023-07-28T00:54:54;24.88;84.32
75190;HTU21D;69198;44.694;37.790;2023-07-28T00:55:56;24.87;84.33
75190;HTU21D;69198;44.694;37.790;2023-07-28T00:56:56;24.86;84.35
75190;HTU21D;69198;44.694;37.790;2023-07-28T00:57:58;24.85;84.32
75190;HTU21D;69198;44.694;37.790;2023-07-28T00:58:59;24.85;84.30
75190;HTU21D;69198;44.694;37.790;2023-07-28T01:00:01;24.84;84.29
75190;HTU21D;69198;44.694;37.790;2023-07-28T01:01:03;24.82;84.20
75190;HTU21D;69198;44.694;37.790;2023-07-28T01:02:04;24.82;84.03
75190;HTU21D;69198;44.694;37.790;2023-07-28T01:03:06;24.82;83.88
75190;HTU21D;69198;44.694;37.790;2023-07-28T01:04:07;24.80;83.82
75190;HTU21D;69198;44.694;37.790;2023-07-28T01:05:08;24.82;83.78
75190;HTU21D;69198;44.694;37.790;2023-07-28T01:06:20;24.80;83.70
75190;HTU21D;69198;44.694;37.790;2023-07-28T01:07:27;24.78;83.67
75190;HTU21D;69198;44.694;37.790;2023-07-28T01:08:42;24.78;83.60
75190;HTU21D;69198;44.694;37.790;2023-07-28T01:10:02;24.74;83.68
75190;HTU21D;69198;44.694;37.790;2023-07-28T01:11:03;24.73;83.74
75190;HTU21D;69198;44.694;37.790;2023-07-28T01:12:07;24.77;83.61
75190;HTU21D;69198;44.694;37.790;2023-07-28T01:13:10;24.77;83.55
75190;HTU21D;69198;44.694;37.790;2023-07-28T01:14:11;24.78;83.50
75190;HTU21D;69198;44.694;37.790;2023-07-28T01:15:12;24.78;83.45
75190;HTU21D;69198;44.694;37.790;2023-07-28T01:16:15;24.79;83.39
75190;HTU21D;69198;44.694;37.790;2023-07-28T01:17:16;24.83;83.33
75190;HTU21D;69198;44.694;37.790;2023-07-28T01:18:18;24.84;83.26
75190;HTU21D;69198;44.694;37.790;2023-07-28T01:19:20;24.84;83.23
75190;HTU21D;69198;44.694;37.790;2023-07-28T01:20:25;24.86;83.20
75190;HTU21D;69198;44.694;37.790;2023-07-28T01:21:31;24.86;83.18
75190;HTU21D;69198;44.694;37.790;2023-07-28T01:24:01;24.89;83.01
75190;HTU21D;69198;44.694;37.790;2023-07-28T01:26:36;24.89;82.85
75190;HTU21D;69198;44.694;37.790;2023-07-28T01:27:38;24.89;82.76
75190;HTU21D;69198;44.694;37.790;2023-07-28T01:28:43;24.91;82.57
75190;HTU21D;69198;44.694;37.790;2023-07-28T01:29:45;24.92;82.29
75190;HTU21D;69198;44.694;37.790;2023-07-28T01:30:47;24.94;82.04
75190;HTU21D;69198;44.694;37.790;2023-07-28T01:31:48;24.95;81.81
75190;HTU21D;69198;44.694;37.790;2023-07-28T01:32:49;25.00;81.65
75190;HTU21D;69198;44.694;37.790;2023-07-28T01:33:50;25.03;81.48
75190;HTU21D;69198;44.694;37.790;2023-07-28T01:34:51;25.04;81.37
75190;HTU21D;69198;44.694;37.790;2023-07-28T01:35:52;25.08;81.24
75190;HTU21D;69198;44.694;37.790;2023-07-28T01:36:53;25.10;81.10
75190;HTU21D;69198;44.694;37.790;2023-07-28T01:37:54;25.12;80.98
75190;HTU21D;69198;44.694;37.790;2023-07-28T01:38:55;25.15;80.88
75190;HTU21D;69198;44.694;37.790;2023-07-28T01:39:56;25.16;80.84
75190;HTU21D;69198;44.694;37.790;2023-07-28T01:40:58;25.17;80.82
75190;HTU21D;69198;44.694;37.790;2023-07-28T01:41:59;25.16;80.76
75190;HTU21D;69198;44.694;37.790;2023-07-28T01:43:00;25.17;80.78
75190;HTU21D;69198;44.694;37.790;2023-07-28T01:44:01;25.17;80.81
75190;HTU21D;69198;44.694;37.790;2023-07-28T01:45:03;25.18;80.86
75190;HTU21D;69198;44.694;37.790;2023-07-28T01:46:04;25.19;80.95
75190;HTU21D;69198;44.694;37.790;2023-07-28T01:47:05;25.19;81.01
75190;HTU21D;69198;44.694;37.790;2023-07-28T01:48:06;25.18;81.08
75190;HTU21D;69198;44.694;37.790;2023-07-28T01:49:09;25.18;81.10
75190;HTU21D;69198;44.694;37.790;2023-07-28T01:50:10;25.18;81.07
75190;HTU21D;69198;44.694;37.790;2023-07-28T01:51:12;25.17;81.09
75190;HTU21D;69198;44.694;37.790;2023-07-28T01:52:13;25.15;81.14
75190;HTU21D;69198;44.694;37.790;2023-07-28T01:53:14;25.16;81.14
75190;HTU21D;69198;44.694;37.790;2023-07-28T01:54:14;25.15;81.16
75190;HTU21D;69198;44.694;37.790;2023-07-28T01:55:15;25.13;81.18
75190;HTU21D;69198;44.694;37.790;2023-07-28T01:56:17;25.13;81.22
75190;HTU21D;69198;44.694;37.790;2023-07-28T01:57:18;25.09;81.25
75190;HTU21D;69198;44.694;37.790;2023-07-28T01:58:19;25.10;81.27
75190;HTU21D;69198;44.694;37.790;2023-07-28T01:59:20;25.09;81.32
75190;HTU21D;69198;44.694;37.790;2023-07-28T02:00:22;25.07;81.32
75190;HTU21D;69198;44.694;37.790;2023-07-28T02:01:23;25.05;81.34
75190;HTU21D;69198;44.694;37.790;2023-07-28T02:02:25;25.03;81.36
75190;HTU21D;69198;44.694;37.790;2023-07-28T02:03:26;25.02;81.52
75190;HTU21D;69198;44.694;37.790;2023-07-28T02:04:27;25.00;81.73
75190;HTU21D;69198;44.694;37.790;2023-07-28T02:05:28;24.97;81.95
75190;HTU21D;69198;44.694;37.790;2023-07-28T02:06:29;24.97;82.11
75190;HTU21D;69198;44.694;37.790;2023-07-28T02:07:32;24.94;82.26
75190;HTU21D;69198;44.694;37.790;2023-07-28T02:08:33;24.93;82.36
75190;HTU21D;69198;44.694;37.790;2023-07-28T02:09:34;24.93;82.42
75190;HTU21D;69198;44.694;37.790;2023-07-28T02:10:35;24.91;82.49
75190;HTU21D;69198;44.694;37.790;2023-07-28T02:11:36;24.90;82.57
75190;HTU21D;69198;44.694;37.790;2023-07-28T02:12:38;24.90;82.62
75190;HTU21D;69198;44.694;37.790;2023-07-28T02:13:39;24.90;82.65
75190;HTU21D;69198;44.694;37.790;2023-07-28T02:14:40;24.90;82.58
75190;HTU21D;69198;44.694;37.790;2023-07-28T02:15:41;24.89;82.49
75190;HTU21D;69198;44.694;37.790;2023-07-28T02:16:42;24.87;82.54
75190;HTU21D;69198;44.694;37.790;2023-07-28T02:17:43;24.88;82.75
75190;HTU21D;69198;44.694;37.790;2023-07-28T02:18:44;24.88;82.90
75190;HTU21D;69198;44.694;37.790;2023-07-28T02:19:45;24.88;83.00
75190;HTU21D;69198;44.694;37.790;2023-07-28T02:20:49;24.89;83.08
75190;HTU21D;69198;44.694;37.790;2023-07-28T02:21:50;24.87;83.09
75190;HTU21D;69198;44.694;37.790;2023-07-28T02:22:51;24.86;83.04
75190;HTU21D;69198;44.694;37.790;2023-07-28T02:23:52;24.88;83.00
75190;HTU21D;69198;44.694;37.790;2023-07-28T02:24:53;24.88;82.99
75190;HTU21D;69198;44.694;37.790;2023-07-28T02:25:54;24.88;82.97
75190;HTU21D;69198;44.694;37.790;2023-07-28T02:26:57;24.87;82.98
75190;HTU21D;69198;44.694;37.790;2023-07-28T02:28:00;24.86;82.98
75190;HTU21D;69198;44.694;37.790;2023-07-28T02:29:01;24.87;83.01
75190;HTU21D;69198;44.694;37.790;2023-07-28T02:30:03;24.88;83.03
75190;HTU21D;69198;44.694;37.790;2023-07-28T02:31:05;24.88;83.04
75190;HTU21D;69198;44.694;37.790;2023-07-28T02:32:06;24.90;83.08
75190;HTU21D;69198;44.694;37.790;2023-07-28T02:33:07;24.91;83.09
75190;HTU21D;69198;44.694;37.790;2023-07-28T02:34:08;24.93;83.09
75190;HTU21D;69198;44.694;37.790;2023-07-28T02:35:09;24.94;83.10
75190;HTU21D;69198;44.694;37.790;2023-07-28T02:36:11;24.97;83.08
75190;HTU21D;69198;44.694;37.790;2023-07-28T02:37:12;24.99;83.05
75190;HTU21D;69198;44.694;37.790;2023-07-28T02:38:13;25.01;83.08
75190;HTU21D;69198;44.694;37.790;2023-07-28T02:39:14;25.03;83.05
75190;HTU21D;69198;44.694;37.790;2023-07-28T02:40:16;25.04;83.00
75190;HTU21D;69198;44.694;37.790;2023-07-28T02:41:17;25.05;82.95
75190;HTU21D;69198;44.694;37.790;2023-07-28T02:42:18;25.05;82.97
75190;HTU21D;69198;44.694;37.790;2023-07-28T02:43:19;25.07;83.00
75190;HTU21D;69198;44.694;37.790;2023-07-28T02:44:20;25.07;83.05
75190;HTU21D;69198;44.694;37.790;2023-07-28T02:45:21;25.07;83.09
75190;HTU21D;69198;44.694;37.790;2023-07-28T02:46:22;25.09;83.10
75190;HTU21D;69198;44.694;37.790;2023-07-28T02:47:23;25.09;83.11
75190;HTU21D;69198;44.694;37.790;2023-07-28T02:48:24;25.10;83.13
75190;HTU21D;69198;44.694;37.790;2023-07-28T02:49:26;25.13;83.15
75190;HTU21D;69198;44.694;37.790;2023-07-28T02:50:27;25.16;83.11
75190;HTU21D;69198;44.694;37.790;2023-07-28T02:51:28;25.18;83.07
75190;HTU21D;69198;44.694;37.790;2023-07-28T02:52:29;25.21;83.02
75190;HTU21D;69198;44.694;37.790;2023-07-28T02:53:30;25.24;82.92
75190;HTU21D;69198;44.694;37.790;2023-07-28T02:54:31;25.29;82.84
75190;HTU21D;69198;44.694;37.790;2023-07-28T02:55:32;25.32;82.73
75190;HTU21D;69198;44.694;37.790;2023-07-28T02:56:34;25.36;82.63
75190;HTU21D;69198;44.694;37.790;2023-07-28T02:57:43;25.36;82.55
75190;HTU21D;69198;44.694;37.790;2023-07-28T02:58:45;25.38;82.49
75190;HTU21D;69198;44.694;37.790;2023-07-28T02:59:46;25.40;82.46
75190;HTU21D;69198;44.694;37.790;2023-07-28T03:00:47;25.42;82.44
75190;HTU21D;69198;44.694;37.790;2023-07-28T03:01:53;25.43;82.47
75190;HTU21D;69198;44.694;37.790;2023-07-28T03:02:55;25.43;82.48
75190;HTU21D;69198;44.694;37.790;2023-07-28T03:03:56;25.48;82.39
75190;HTU21D;69198;44.694;37.790;2023-07-28T03:04:58;25.51;82.20
75190;HTU21D;69198;44.694;37.790;2023-07-28T03:06:17;25.54;82.10
75190;HTU21D;69198;44.694;37.790;2023-07-28T03:07:18;25.57;82.06
75190;HTU21D;69198;44.694;37.790;2023-07-28T03:08:23;25.56;82.02
75190;HTU21D;69198;44.694;37.790;2023-07-28T03:09:24;25.57;82.01
75190;HTU21D;69198;44.694;37.790;2023-07-28T03:10:36;25.58;81.98
75190;HTU21D;69198;44.694;37.790;2023-07-28T03:11:37;25.59;81.95
75190;HTU21D;69198;44.694;37.790;2023-07-28T03:12:38;25.59;81.96
75190;HTU21D;69198;44.694;37.790;2023-07-28T03:13:39;25.60;81.95
75190;HTU21D;69198;44.694;37.790;2023-07-28T03:14:40;25.61;81.92
75190;HTU21D;69198;44.694;37.790;2023-07-28T03:15:41;25.62;81.89
75190;HTU21D;69198;44.694;37.790;2023-07-28T03:16:42;25.64;81.84
75190;HTU21D;69198;44.694;37.790;2023-07-28T03:17:43;25.64;81.75
75190;HTU21D;69198;44.694;37.790;2023-07-28T03:18:44;25.65;81.67
75190;HTU21D;69198;44.694;37.790;2023-07-28T03:19:45;25.67;81.55
75190;HTU21D;69198;44.694;37.790;2023-07-28T03:20:47;25.69;81.40
75190;HTU21D;69198;44.694;37.790;2023-07-28T03:21:48;25.72;81.30
75190;HTU21D;69198;44.694;37.790;2023-07-28T03:22:49;25.75;81.17
75190;HTU21D;69198;44.694;37.790;2023-07-28T03:23:50;25.75;81.07
75190;HTU21D;69198;44.694;37.790;2023-07-28T03:24:51;25.77;80.99
75190;HTU21D;69198;44.694;37.790;2023-07-28T03:25:52;25.76;80.94
75190;HTU21D;69198;44.694;37.790;2023-07-28T03:26:54;25.79;80.76
75190;HTU21D;69198;44.694;37.790;2023-07-28T03:27:55;25.83;80.54
75190;HTU21D;69198;44.694;37.790;2023-07-28T03:28:56;25.86;80.40
75190;HTU21D;69198;44.694;37.790;2023-07-28T03:29:57;25.89;80.18
75190;HTU21D;69198;44.694;37.790;2023-07-28T03:30:58;25.91;80.01
75190;HTU21D;69198;44.694;37.790;2023-07-28T03:32:00;25.95;79.82
75190;HTU21D;69198;44.694;37.790;2023-07-28T03:33:01;25.99;79.67
75190;HTU21D;69198;44.694;37.790;2023-07-28T03:34:03;26.06;79.50
75190;HTU21D;69198;44.694;37.790;2023-07-28T03:35:06;26.08;79.38
75190;HTU21D;69198;44.694;37.790;2023-07-28T03:36:13;26.10;79.23
75190;HTU21D;69198;44.694;37.790;2023-07-28T03:37:14;26.13;79.03
75190;HTU21D;69198;44.694;37.790;2023-07-28T03:38:15;26.16;78.82
75190;HTU21D;69198;44.694;37.790;2023-07-28T03:39:16;26.20;78.63
75190;HTU21D;69198;44.694;37.790;2023-07-28T03:40:21;26.25;78.47
75190;HTU21D;69198;44.694;37.790;2023-07-28T03:41:25;26.34;78.17
75190;HTU21D;69198;44.694;37.790;2023-07-28T03:42:26;26.42;77.85
75190;HTU21D;69198;44.694;37.790;2023-07-28T03:43:27;26.53;77.40
75190;HTU21D;69198;44.694;37.790;2023-07-28T03:44:28;26.61;77.06
75190;HTU21D;69198;44.694;37.790;2023-07-28T03:45:29;26.68;76.70
75190;HTU21D;69198;44.694;37.790;2023-07-28T03:46:31;26.73;76.41
75190;HTU21D;69198;44.694;37.790;2023-07-28T03:47:32;26.78;76.16
75190;HTU21D;69198;44.694;37.790;2023-07-28T03:48:33;26.82;76.02
75190;HTU21D;69198;44.694;37.790;2023-07-28T03:49:34;26.96;75.65
75190;HTU21D;69198;44.694;37.790;2023-07-28T03:50:35;27.02;75.40
75190;HTU21D;69198;44.694;37.790;2023-07-28T03:51:36;27.08;75.15
75190;HTU21D;69198;44.694;37.790;2023-07-28T03:52:37;27.13;74.88
75190;HTU21D;69198;44.694;37.790;2023-07-28T03:53:38;27.13;74.40
75190;HTU21D;69198;44.694;37.790;2023-07-28T03:54:39;27.17;73.94
75190;HTU21D;69198;44.694;37.790;2023-07-28T03:55:41;27.19;73.67
75190;HTU21D;69198;44.694;37.790;2023-07-28T03:56:42;27.19;73.50
75190;HTU21D;69198;44.694;37.790;2023-07-28T03:57:43;27.17;73.37
75190;HTU21D;69198;44.694;37.790;2023-07-28T03:58:44;27.19;73.27
75190;HTU21D;69198;44.694;37.790;2023-07-28T03:59:45;27.21;73.05
75190;HTU21D;69198;44.694;37.790;2023-07-28T04:00:46;27.20;73.00
75190;HTU21D;69198;44.694;37.790;2023-07-28T04:01:47;27.19;72.80
75190;HTU21D;69198;44.694;37.790;2023-07-28T04:02:48;27.20;72.80
75190;HTU21D;69198;44.694;37.790;2023-07-28T04:03:49;27.22;72.60
75190;HTU21D;69198;44.694;37.790;2023-07-28T04:04:54;27.24;72.20
75190;HTU21D;69198;44.694;37.790;2023-07-28T04:05:55;27.24;71.87
75190;HTU21D;69198;44.694;37.790;2023-07-28T04:06:56;27.28;71.50
75190;HTU21D;69198;44.694;37.790;2023-07-28T04:07:57;27.28;71.16
75190;HTU21D;69198;44.694;37.790;2023-07-28T04:08:58;27.28;70.77
75190;HTU21D;69198;44.694;37.790;2023-07-28T04:10:00;27.24;70.34
75190;HTU21D;69198;44.694;37.790;2023-07-28T04:11:01;27.24;69.97
75190;HTU21D;69198;44.694;37.790;2023-07-28T04:12:02;27.22;69.65
75190;HTU21D;69198;44.694;37.790;2023-07-28T04:13:04;27.15;69.55
75190;HTU21D;69198;44.694;37.790;2023-07-28T04:14:05;27.09;69.45
75190;HTU21D;69198;44.694;37.790;2023-07-28T04:15:07;27.02;69.45
75190;HTU21D;69198;44.694;37.790;2023-07-28T04:16:08;26.97;69.33
75190;HTU21D;69198;44.694;37.790;2023-07-28T04:17:09;26.91;69.30
75190;HTU21D;69198;44.694;37.790;2023-07-28T04:18:12;26.89;69.22
75190;HTU21D;69198;44.694;37.790;2023-07-28T04:19:13;26.84;69.26
75190;HTU21D;69198;44.694;37.790;2023-07-28T04:20:14;26.84;69.29
75190;HTU21D;69198;44.694;37.790;2023-07-28T04:21:15;26.84;69.25
75190;HTU21D;69198;44.694;37.790;2023-07-28T04:22:16;26.83;69.12
75190;HTU21D;69198;44.694;37.790;2023-07-28T04:23:23;26.90;68.99
75190;HTU21D;69198;44.694;37.790;2023-07-28T04:24:24;26.99;68.64
75190;HTU21D;69198;44.694;37.790;2023-07-28T04:25:26;27.08;68.37
75190;HTU21D;69198;44.694;37.790;2023-07-28T04:26:27;27.12;68.10
75190;HTU21D;69198;44.694;37.790;2023-07-28T04:27:37;27.14;67.65
75190;HTU21D;69198;44.694;37.790;2023-07-28T04:28:39;27.15;67.24
75190;HTU21D;69198;44.694;37.790;2023-07-28T04:29:41;27.21;66.96
75190;HTU21D;69198;44.694;37.790;2023-07-28T04:30:44;27.20;66.26
75190;HTU21D;69198;44.694;37.790;2023-07-28T04:31:59;27.13;66.01
75190;HTU21D;69198;44.694;37.790;2023-07-28T04:33:05;27.11;65.81
75190;HTU21D;69198;44.694;37.790;2023-07-28T04:34:12;27.07;65.64
75190;HTU21D;69198;44.694;37.790;2023-07-28T04:35:31;26.98;65.02
75190;HTU21D;69198;44.694;37.790;2023-07-28T04:36:48;26.90;64.84
75190;HTU21D;69198;44.694;37.790;2023-07-28T04:37:55;26.84;64.10
75190;HTU21D;69198;44.694;37.790;2023-07-28T04:39:16;26.89;63.72
75190;HTU21D;69198;44.694;37.790;2023-07-28T04:40:19;26.94;62.92
75190;HTU21D;69198;44.694;37.790;2023-07-28T04:41:20;26.93;62.70
75190;HTU21D;69198;44.694;37.790;2023-07-28T04:42:27;26.90;62.53
75190;HTU21D;69198;44.694;37.790;2023-07-28T04:43:31;26.87;62.49
75190;HTU21D;69198;44.694;37.790;2023-07-28T04:44:32;26.85;62.33
75190;HTU21D;69198;44.694;37.790;2023-07-28T04:45:36;26.84;62.22
75190;HTU21D;69198;44.694;37.790;2023-07-28T04:46:44;26.85;62.18
75190;HTU21D;69198;44.694;37.790;2023-07-28T04:47:48;26.89;61.88
75190;HTU21D;69198;44.694;37.790;2023-07-28T04:48:49;26.90;61.55
75190;HTU21D;69198;44.694;37.790;2023-07-28T04:50:29;26.94;61.78
75190;HTU21D;69198;44.694;37.790;2023-07-28T04:51:48;26.97;61.82
75190;HTU21D;69198;44.694;37.790;2023-07-28T04:52:52;27.02;61.67
75190;HTU21D;69198;44.694;37.790;2023-07-28T04:54:22;27.08;61.92
75190;HTU21D;69198;44.694;37.790;2023-07-28T04:55:23;27.12;62.04
75190;HTU21D;69198;44.694;37.790;2023-07-28T04:56:24;27.27;62.09
75190;HTU21D;69198;44.694;37.790;2023-07-28T04:57:25;27.37;62.19
75190;HTU21D;69198;44.694;37.790;2023-07-28T04:58:26;27.50;62.31
75190;HTU21D;69198;44.694;37.790;2023-07-28T04:59:28;27.66;62.15
75190;HTU21D;69198;44.694;37.790;2023-07-28T05:00:29;27.90;61.85
75190;HTU21D;69198;44.694;37.790;2023-07-28T05:01:31;28.03;61.52
75190;HTU21D;69198;44.694;37.790;2023-07-28T05:02:32;28.06;61.47
75190;HTU21D;69198;44.694;37.790;2023-07-28T05:03:33;28.08;61.52
75190;HTU21D;69198;44.694;37.790;2023-07-28T05:04:47;28.08;61.77
75190;HTU21D;69198;44.694;37.790;2023-07-28T05:05:49;28.08;61.82
75190;HTU21D;69198;44.694;37.790;2023-07-28T05:06:50;28.11;61.79
75190;HTU21D;69198;44.694;37.790;2023-07-28T05:07:51;28.16;61.76
75190;HTU21D;69198;44.694;37.790;2023-07-28T05:08:52;28.25;61.58
75190;HTU21D;69198;44.694;37.790;2023-07-28T05:10:06;28.27;61.27
75190;HTU21D;69198;44.694;37.790;2023-07-28T05:11:07;28.27;61.16
75190;HTU21D;69198;44.694;37.790;2023-07-28T05:12:08;28.27;60.96
75190;HTU21D;69198;44.694;37.790;2023-07-28T05:13:16;28.23;60.76
75190;HTU21D;69198;44.694;37.790;2023-07-28T05:14:26;28.12;60.66
75190;HTU21D;69198;44.694;37.790;2023-07-28T05:15:27;28.05;60.50
75190;HTU21D;69198;44.694;37.790;2023-07-28T05:16:28;27.97;60.11
75190;HTU21D;69198;44.694;37.790;2023-07-28T05:17:44;27.83;60.08
75190;HTU21D;69198;44.694;37.790;2023-07-28T05:19:19;27.69;60.21
75190;HTU21D;69198;44.694;37.790;2023-07-28T05:20:32;27.65;59.93
75190;HTU21D;69198;44.694;37.790;2023-07-28T05:21:48;27.57;59.61
75190;HTU21D;69198;44.694;37.790;2023-07-28T05:22:51;27.54;59.43
75190;HTU21D;69198;44.694;37.790;2023-07-28T05:23:53;27.50;59.44
75190;HTU21D;69198;44.694;37.790;2023-07-28T05:24:54;27.49;59.55
75190;HTU21D;69198;44.694;37.790;2023-07-28T05:25:58;27.49;59.62
75190;HTU21D;69198;44.694;37.790;2023-07-28T05:26:59;27.51;59.61
75190;HTU21D;69198;44.694;37.790;2023-07-28T05:28:00;27.57;59.63
75190;HTU21D;69198;44.694;37.790;2023-07-28T05:29:02;27.59;59.66
75190;HTU21D;69198;44.694;37.790;2023-07-28T05:30:04;27.64;59.73
75190;HTU21D;69198;44.694;37.790;2023-07-28T05:31:06;27.65;59.87
75190;HTU21D;69198;44.694;37.790;2023-07-28T05:32:07;27.69;60.08
75190;HTU21D;69198;44.694;37.790;2023-07-28T05:33:17;27.70;60.22
75190;HTU21D;69198;44.694;37.790;2023-07-28T05:34:23;27.71;60.28
75190;HTU21D;69198;44.694;37.790;2023-07-28T05:35:24;27.69;60.44
75190;HTU21D;69198;44.694;37.790;2023-07-28T05:36:25;27.65;60.63
75190;HTU21D;69198;44.694;37.790;2023-07-28T05:37:30;27.58;60.77
75190;HTU21D;69198;44.694;37.790;2023-07-28T05:38:31;27.55;60.77
75190;HTU21D;69198;44.694;37.790;2023-07-28T05:39:32;27.53;60.78
75190;HTU21D;69198;44.694;37.790;2023-07-28T05:40:34;27.49;60.89
75190;HTU21D;69198;44.694;37.790;2023-07-28T05:41:36;27.51;60.98
75190;HTU21D;69198;44.694;37.790;2023-07-28T05:42:37;27.59;60.91
75190;HTU21D;69198;44.694;37.790;2023-07-28T05:43:38;27.65;60.87
75190;HTU21D;69198;44.694;37.790;2023-07-28T05:44:39;27.67;60.89
75190;HTU21D;69198;44.694;37.790;2023-07-28T05:45:46;27.70;60.89
75190;HTU21D;69198;44.694;37.790;2023-07-28T05:46:48;27.68;61.01
75190;HTU21D;69198;44.694;37.790;2023-07-28T05:47:50;27.63;61.23
75190;HTU21D;69198;44.694;37.790;2023-07-28T05:48:53;27.56;61.43
75190;HTU21D;69198;44.694;37.790;2023-07-28T05:49:54;27.53;61.58
75190;HTU21D;69198;44.694;37.790;2023-07-28T05:50:56;27.52;61.54
75190;HTU21D;69198;44.694;37.790;2023-07-28T05:51:56;27.53;61.44
75190;HTU21D;69198;44.694;37.790;2023-07-28T05:52:58;27.56;61.34
75190;HTU21D;69198;44.694;37.790;2023-07-28T05:53:59;27.55;61.32
75190;HTU21D;69198;44.694;37.790;2023-07-28T05:55:00;27.54;61.32
75190;HTU21D;69198;44.694;37.790;2023-07-28T05:56:02;27.49;61.44
75190;HTU21D;69198;44.694;37.790;2023-07-28T05:57:05;27.43;61.50
75190;HTU21D;69198;44.694;37.790;2023-07-28T05:58:08;27.43;61.63
75190;HTU21D;69198;44.694;37.790;2023-07-28T05:59:17;27.39;61.81
75190;HTU21D;69198;44.694;37.790;2023-07-28T06:00:18;27.40;61.89
75190;HTU21D;69198;44.694;37.790;2023-07-28T06:01:19;27.39;62.06
75190;HTU21D;69198;44.694;37.790;2023-07-28T06:02:52;27.36;62.38
75190;HTU21D;69198;44.694;37.790;2023-07-28T06:04:13;27.37;62.64
75190;HTU21D;69198;44.694;37.790;2023-07-28T06:05:21;27.38;62.80
75190;HTU21D;69198;44.694;37.790;2023-07-28T06:06:22;27.37;62.94
75190;HTU21D;69198;44.694;37.790;2023-07-28T06:07:23;27.34;63.08
75190;HTU21D;69198;44.694;37.790;2023-07-28T06:08:24;27.32;63.12
75190;HTU21D;69198;44.694;37.790;2023-07-28T06:09:25;27.34;63.10
75190;HTU21D;69198;44.694;37.790;2023-07-28T06:10:26;27.38;62.79
75190;HTU21D;69198;44.694;37.790;2023-07-28T06:11:27;27.52;62.24
75190;HTU21D;69198;44.694;37.790;2023-07-28T06:12:29;27.71;61.60
75190;HTU21D;69198;44.694;37.790;2023-07-28T06:13:30;27.98;60.83
75190;HTU21D;69198;44.694;37.790;2023-07-28T06:14:31;28.16;60.09
75190;HTU21D;69198;44.694;37.790;2023-07-28T06:15:33;28.26;59.54
75190;HTU21D;69198;44.694;37.790;2023-07-28T06:16:36;28.24;59.19
75190;HTU21D;69198;44.694;37.790;2023-07-28T06:17:38;28.29;59.25
75190;HTU21D;69198;44.694;37.790;2023-07-28T06:18:39;28.60;58.83
75190;HTU21D;69198;44.694;37.790;2023-07-28T06:19:53;28.89;58.19
75190;HTU21D;69198;44.694;37.790;2023-07-28T06:20:54;28.94;58.03
75190;HTU21D;69198;44.694;37.790;2023-07-28T06:21:54;28.95;58.01
75190;HTU21D;69198;44.694;37.790;2023-07-28T06:22:56;28.86;58.29
75190;HTU21D;69198;44.694;37.790;2023-07-28T06:23:59;28.74;58.71
75190;HTU21D;69198;44.694;37.790;2023-07-28T06:25:01;28.49;59.34
75190;HTU21D;69198;44.694;37.790;2023-07-28T06:26:03;28.26;60.05
75190;HTU21D;69198;44.694;37.790;2023-07-28T06:27:05;28.03;60.81
75190;HTU21D;69198;44.694;37.790;2023-07-28T06:28:11;27.82;61.52